Time;durP1;ratioP1;P1;durP2;ratioP2;P2;SDS_P1;SDS_P2;PMS_P1;PMS_P2;Temp;Humidity;BMP_temperature;BMP_pressure;BME280_temperature;BME280_humidity;BME280_pressure;Samples;Min_cycle;Max_cycle;Signal;HPM_P1;HPM_P2
2023/07/05 00:01:35;;;;;;;;;;;;;;;25.44;76.69;99398.72;2502926;27;19937;-76
2023/07/05 00:01:45;;;;;;;;;;;;;;;25.43;76.54;99393.53;356310;27;866;-78
2023/07/05 00:01:55;;;;;;;;;;;;;;;25.42;76.18;99394.53;353090;28;1396;-77
2023/07/05 00:02:05;;;;;;;;;;;;;;;25.42;76.38;99390.00;350285;28;1294;-77
2023/07/05 00:02:16;;;;;;;;;;;;;;;25.43;76.34;99391.69;350323;28;1153;-77
2023/07/05 00:02:26;;;;;;;;;;;;;;;25.43;76.43;99394.38;350302;28;1315;-77
2023/07/05 00:02:36;;;;;;;;;;;;;;;25.41;76.27;99393.69;350314;28;1229;-78
2023/07/05 00:02:49;;;;;;;;;;;;;;;25.38;76.35;99398.53;351608;28;1228;-77
2023/07/05 00:03:00;;;;;;;;;;;;;;;25.33;76.40;99385.63;351507;28;1246;-77
2023/07/05 00:03:10;;;;;;;;;;;;;;;25.31;76.62;99394.81;348872;28;1227;-77
2023/07/05 00:03:20;;;;;;;;;;;;;;;25.29;76.74;99397.66;348872;28;1186;-77
2023/07/05 00:03:30;;;;;;;;;;;;;;;25.24;76.88;99394.63;347392;28;1200;-77
2023/07/05 00:03:41;;;;;;;;;;;;;;;25.22;77.19;99396.63;350353;28;1229;-77
2023/07/05 00:03:51;;;;;;;;;;;;;;;25.21;76.97;99394.94;350214;28;1708;-77
2023/07/05 00:04:01;;;;;;;;;;;;;;;25.19;77.26;99396.94;349956;28;1577;-77
2023/07/05 00:04:11;;;;;;;;;;;;;;;25.18;77.42;99401.47;347579;28;1382;-77
2023/07/05 00:04:22;;;;;;;;;;;;;;;25.19;77.32;99391.59;349210;28;1215;-77
2023/07/05 00:04:32;;;;;;;;;;;;;;;25.20;77.20;99393.25;348930;28;1236;-77
2023/07/05 00:04:42;;;;;;;;;;;;;;;25.21;77.30;99394.94;350174;28;1391;-77
2023/07/05 00:04:52;;;;;;;;;;;;;;;25.20;77.31;99394.09;350354;28;815;-77
2023/07/05 00:05:03;;;;;;;;;;;;;;;25.18;77.33;99397.94;351592;28;1397;-77
2023/07/05 00:05:16;;;;;;;;;;;;;;;25.19;77.59;99397.78;351660;28;1424;-77
2023/07/05 00:05:26;;;;;;;;;;;;;;;25.22;77.38;99396.63;350091;28;1414;-76
2023/07/05 00:05:37;;;;;;;;;;;;;;;25.25;77.36;99398.97;348993;28;1267;-76
2023/07/05 00:05:47;;;;;;;;;;;;;;;25.26;77.31;99387.25;350048;28;852;-76
2023/07/05 00:06:02;;;;;;;;;;;;;;;25.26;77.33;99387.25;350224;28;819;-77
2023/07/05 00:06:12;;;;;;;;;;;;;;;25.29;77.29;99394.97;352091;28;1318;-76
2023/07/05 00:06:22;;;;;;;;;;;;;;;25.30;77.09;99393.97;350241;28;1027;-75
2023/07/05 00:06:32;;;;;;;;;;;;;;;25.32;76.96;99397.34;351861;28;596;-77
2023/07/05 00:06:43;;;;;;;;;;;;;;;25.33;76.86;99393.66;350661;28;1202;-78
2023/07/05 00:06:53;;;;;;;;;;;;;;;25.34;76.88;99395.31;347797;28;1329;-77
2023/07/05 00:07:05;;;;;;;;;;;;;;;25.36;76.99;99392.50;349319;28;1364;-76
2023/07/05 00:07:15;;;;;;;;;;;;;;;25.38;76.59;99395.84;351607;28;1328;-77
2023/07/05 00:07:25;;;;;;;;;;;;;;;25.38;76.87;99390.50;347630;28;1235;-78
2023/07/05 00:07:36;;;;;;;;;;;;;;;25.40;76.82;99400.03;343548;28;1212;-77
2023/07/05 00:07:46;;;;;;;;;;;;;;;25.41;76.69;99393.69;346925;28;1335;-78
2023/07/05 00:07:58;;;;;;;;;;;;;;;25.42;76.44;99397.19;347033;28;859;-78
2023/07/05 00:08:08;;;;;;;;;;;;;;;25.41;76.57;99390.16;344857;28;808;-78
2023/07/05 00:08:22;;;;;;;;;;;;;;;25.40;76.39;99394.69;347429;28;1319;-78
2023/07/05 00:08:33;;;;;;;;;;;;;;;25.41;76.32;99396.38;346166;28;1739;-77
2023/07/05 00:08:43;;;;;;;;;;;;;;;25.40;76.32;99397.38;343862;28;1284;-77
2023/07/05 00:08:53;;;;;;;;;;;;;;;25.37;76.46;99395.00;343568;28;899;-76
2023/07/05 00:09:03;;;;;;;;;;;;;;;25.38;76.69;99396.69;342698;28;1396;-76
2023/07/05 00:09:14;;;;;;;;;;;;;;;25.39;76.81;99394.84;344777;28;1382;-76
2023/07/05 00:09:24;;;;;;;;;;;;;;;25.40;76.46;99388.47;344745;28;1346;-76
2023/07/05 00:09:34;;;;;;;;;;;;;;;25.40;76.47;99393.84;344964;28;1280;-77
2023/07/05 00:09:44;;;;;;;;;;;;;;;25.40;76.65;99392.00;347070;28;1376;-77
2023/07/05 00:09:55;;;;;;;;;;;;;;;25.39;76.89;99395.69;342451;28;1232;-78
2023/07/05 00:10:05;;;;;;;;;;;;;;;25.41;76.68;99390.16;341021;29;1194;-77
2023/07/05 00:10:15;;;;;;;;;;;;;;;25.39;76.32;99395.69;340826;28;1131;-76
2023/07/05 00:10:26;;;;;;;;;;;;;;;25.38;76.36;99391.31;341164;28;959;-77
2023/07/05 00:10:36;;;;;;;;;;;;;;;25.38;76.18;99402.03;344638;28;1363;-77
2023/07/05 00:10:46;;;;;;;;;;;;;;;25.38;76.55;99402.03;343137;28;1251;-77
2023/07/05 00:11:03;;;;;;;;;;;;;;;25.37;76.50;99392.31;340399;28;1439;-77
2023/07/05 00:11:14;;;;;;;;;;;;;;;25.39;76.54;99395.69;342028;28;1246;-77
2023/07/05 00:11:24;;;;;;;;;;;;;;;25.39;76.35;99392.16;343273;28;1342;-78
2023/07/05 00:11:34;;;;;;;;;;;;;;;25.39;76.14;99398.38;339615;29;814;-77
2023/07/05 00:11:46;;;;;;;;;;;;;;;25.39;76.61;99386.81;339820;29;1735;-77
2023/07/05 00:11:56;;;;;;;;;;;;;;;25.41;76.29;99396.38;340466;29;1845;-77
2023/07/05 00:12:06;;;;;;;;;;;;;;;25.42;76.14;99395.38;339494;29;1233;-77
2023/07/05 00:12:17;;;;;;;;;;;;;;;25.43;76.06;99393.53;335899;29;1595;-77
2023/07/05 00:12:27;;;;;;;;;;;;;;;25.45;76.05;99397.72;334924;29;1682;-78
2023/07/05 00:12:37;;;;;;;;;;;;;;;25.47;76.24;99394.88;334356;29;1148;-77
2023/07/05 00:12:47;;;;;;;;;;;;;;;25.47;75.91;99395.72;332692;29;1284;-77
2023/07/05 00:12:59;;;;;;;;;;;;;;;25.49;75.95;99399.06;336971;29;1196;-77
2023/07/05 00:13:09;;;;;;;;;;;;;;;25.51;75.91;99391.72;338029;29;1307;-76
2023/07/05 00:13:19;;;;;;;;;;;;;;;25.50;75.80;99395.38;339406;29;1301;-76
2023/07/05 00:13:30;;;;;;;;;;;;;;;25.50;75.89;99395.38;337925;29;1934;-77
2023/07/05 00:13:40;;;;;;;;;;;;;;;25.50;76.09;99400.75;334138;29;2076;-76
2023/07/05 00:13:50;;;;;;;;;;;;;;;25.51;75.91;99397.06;334328;29;972;-76
2023/07/05 00:14:00;;;;;;;;;;;;;;;25.50;75.96;99398.06;332131;29;2106;-76
2023/07/05 00:14:11;;;;;;;;;;;;;;;25.52;75.98;99397.91;330446;29;2250;-77
2023/07/05 00:14:21;;;;;;;;;;;;;;;25.53;75.87;99402.28;333008;29;787;-78
2023/07/05 00:14:32;;;;;;;;;;;;;;;25.54;75.92;99406.63;333462;29;2046;-78
2023/07/05 00:14:42;;;;;;;;;;;;;;;25.53;75.83;99403.09;333274;29;1936;-78
2023/07/05 00:14:52;;;;;;;;;;;;;;;25.55;75.66;99396.75;334517;29;1213;-78
2023/07/05 00:15:04;;;;;;;;;;;;;;;25.55;75.77;99396.75;337833;29;1639;-78
2023/07/05 00:15:14;;;;;;;;;;;;;;;25.55;75.73;99397.59;335497;29;957;-77
2023/07/05 00:15:24;;;;;;;;;;;;;;;25.55;75.58;99397.59;333807;29;1603;-78
2023/07/05 00:15:34;;;;;;;;;;;;;;;25.55;75.65;99396.75;333479;29;1213;-78
2023/07/05 00:15:48;;;;;;;;;;;;;;;25.55;75.63;99394.06;331752;29;2181;-78
2023/07/05 00:15:59;;;;;;;;;;;;;;;25.55;75.64;99392.22;329006;29;2973;-77
2023/07/05 00:16:09;;;;;;;;;;;;;;;25.56;75.13;99399.22;327222;29;2708;-77
2023/07/05 00:16:20;;;;;;;;;;;;;;;25.56;75.83;99399.22;325704;30;1257;-77
2023/07/05 00:16:31;;;;;;;;;;;;;;;25.56;75.71;99399.22;323210;30;3364;-77
2023/07/05 00:16:41;;;;;;;;;;;;;;;25.56;75.49;99393.88;322443;30;2572;-77
2023/07/05 00:16:51;;;;;;;;;;;;;;;25.57;75.49;99394.72;324388;30;1425;-77
2023/07/05 00:17:02;;;;;;;;;;;;;;;25.59;75.64;99403.44;325259;30;2458;-76
2023/07/05 00:17:12;;;;;;;;;;;;;;;25.59;75.62;99398.06;321044;30;1946;-76
2023/07/05 00:17:22;;;;;;;;;;;;;;;25.59;75.54;99395.38;318133;31;1382;-76
2023/07/05 00:17:33;;;;;;;;;;;;;;;25.60;75.64;99405.09;321190;30;2026;-76
2023/07/05 00:17:43;;;;;;;;;;;;;;;25.60;75.53;99399.75;317703;31;2248;-77
2023/07/05 00:17:53;;;;;;;;;;;;;;;25.61;75.42;99394.22;317384;31;1229;-77
2023/07/05 00:18:04;;;;;;;;;;;;;;;25.62;75.36;99403.09;314052;31;3307;-76
2023/07/05 00:18:14;;;;;;;;;;;;;;;25.62;75.48;99401.25;313842;31;4234;-76
2023/07/05 00:18:24;;;;;;;;;;;;;;;25.63;75.43;99405.63;312789;31;3950;-77
2023/07/05 00:18:35;;;;;;;;;;;;;;;25.65;75.62;99400.13;309490;31;1214;-77
2023/07/05 00:18:45;;;;;;;;;;;;;;;25.65;75.42;99397.44;309164;31;4176;-75
2023/07/05 00:18:56;;;;;;;;;;;;;;;25.65;75.35;99400.97;308407;31;3602;-77
2023/07/05 00:19:07;;;;;;;;;;;;;;;25.67;75.49;99403.47;306372;32;1260;-76
2023/07/05 00:19:18;;;;;;;;;;;;;;;25.65;75.71;99400.13;302438;32;3246;-76
2023/07/05 00:19:28;;;;;;;;;;;;;;;25.64;75.58;99401.13;303292;32;2623;-76
2023/07/05 00:19:39;;;;;;;;;;;;;;;25.63;75.23;99400.25;305281;32;1501;-76
2023/07/05 00:19:50;;;;;;;;;;;;;;;25.64;75.41;99395.75;298118;33;1267;-76
2023/07/05 00:20:00;;;;;;;;;;;;;;;25.63;75.59;99404.78;298649;32;3945;-77
2023/07/05 00:20:11;;;;;;;;;;;;;;;25.62;75.64;99397.75;296930;33;6155;-77
2023/07/05 00:20:22;;;;;;;;;;;;;;;25.61;74.95;99396.91;295851;33;1221;-77
2023/07/05 00:20:33;;;;;;;;;;;;;;;25.61;75.43;99401.41;297086;32;5750;-76
2023/07/05 00:20:43;;;;;;;;;;;;;;;25.61;75.44;99401.41;295695;33;6469;-77
2023/07/05 00:20:53;;;;;;;;;;;;;;;25.61;75.60;99401.41;293957;33;1339;-77
2023/07/05 00:21:04;;;;;;;;;;;;;;;25.61;75.42;99402.25;291612;33;5687;-76
2023/07/05 00:21:15;;;;;;;;;;;;;;;25.61;75.42;99401.41;291876;33;4889;-76
2023/07/05 00:21:25;;;;;;;;;;;;;;;25.60;75.53;99399.75;290697;33;4123;-76
2023/07/05 00:21:36;;;;;;;;;;;;;;;25.56;75.63;99403.78;289278;34;876;-76
2023/07/05 00:21:46;;;;;;;;;;;;;;;25.52;75.94;99404.09;285239;34;4026;-77
2023/07/05 00:21:56;;;;;;;;;;;;;;;25.48;76.06;99396.56;282539;34;4925;-76
2023/07/05 00:22:07;;;;;;;;;;;;;;;25.42;76.23;99392.69;285310;34;1465;-76
2023/07/05 00:22:17;;;;;;;;;;;;;;;25.40;76.24;99397.38;283908;34;6088;-76
2023/07/05 00:24:31;;;;;;;;;;;;;;;25.45;76.08;99394.19;2500257;27;19936;-78
2023/07/05 00:24:41;;;;;;;;;;;;;;;25.46;76.08;99396.72;354288;27;1144;-77
2023/07/05 00:24:53;;;;;;;;;;;;;;;25.48;76.15;99397.41;353168;28;843;-77
2023/07/05 00:25:03;;;;;;;;;;;;;;;25.48;76.08;99397.41;351777;28;832;-76
2023/07/05 00:25:14;;;;;;;;;;;;;;;25.47;75.67;99392.19;348954;28;1373;-77
2023/07/05 00:25:25;;;;;;;;;;;;;;;25.46;75.95;99399.41;349112;28;757;-77
2023/07/05 00:25:35;;;;;;;;;;;;;;;25.45;76.07;99389.69;350228;28;1282;-77
2023/07/05 00:25:47;;;;;;;;;;;;;;;25.46;75.85;99393.19;348934;28;1216;-77
2023/07/05 00:25:57;;;;;;;;;;;;;;;25.46;76.11;99399.41;347497;28;986;-77
2023/07/05 00:26:07;;;;;;;;;;;;;;;25.46;76.15;99394.03;348674;28;1520;-77
2023/07/05 00:26:18;;;;;;;;;;;;;;;25.47;75.95;99389.50;347531;28;1313;-77
2023/07/05 00:26:28;;;;;;;;;;;;;;;25.48;75.73;99385.84;352145;28;1253;-77
2023/07/05 00:26:39;;;;;;;;;;;;;;;25.48;75.72;99392.03;351724;28;904;-76
2023/07/05 00:26:49;;;;;;;;;;;;;;;25.49;75.89;99396.38;350294;28;1309;-76
2023/07/05 00:26:59;;;;;;;;;;;;;;;25.49;75.91;99385.66;351692;28;1195;-77
2023/07/05 00:27:09;;;;;;;;;;;;;;;25.48;75.94;99392.03;351814;28;784;-77
2023/07/05 00:27:22;;;;;;;;;;;;;;;25.48;75.85;99391.19;351744;28;930;-77
2023/07/05 00:27:33;;;;;;;;;;;;;;;25.48;76.22;99385.84;351709;28;819;-77
2023/07/05 00:27:43;;;;;;;;;;;;;;;25.50;76.01;99394.56;351893;28;1220;-77
2023/07/05 00:27:53;;;;;;;;;;;;;;;25.50;75.88;99390.03;347495;28;1222;-77
2023/07/05 00:28:03;;;;;;;;;;;;;;;25.50;76.03;99391.88;349062;28;1195;-77
2023/07/05 00:28:14;;;;;;;;;;;;;;;25.47;76.10;99389.50;348941;28;768;-77
2023/07/05 00:28:24;;;;;;;;;;;;;;;25.44;76.19;99393.34;347692;28;1315;-77
2023/07/05 00:28:34;;;;;;;;;;;;;;;25.40;76.34;99389.31;350111;28;1261;-77
2023/07/05 00:28:45;;;;;;;;;;;;;;;25.36;76.42;99385.28;351606;28;1221;-77
2023/07/05 00:28:55;;;;;;;;;;;;;;;25.32;76.54;99389.28;349591;28;878;-77
2023/07/05 00:29:05;;;;;;;;;;;;;;;25.28;76.82;99389.78;348983;28;922;-77
2023/07/05 00:29:16;;;;;;;;;;;;;;;25.26;76.77;99386.41;350154;28;1356;-77
2023/07/05 00:29:26;;;;;;;;;;;;;;;25.21;77.27;99384.22;349784;28;1359;-76
2023/07/05 00:29:36;;;;;;;;;;;;;;;25.19;77.28;99391.59;346095;28;1232;-76
2023/07/05 00:29:47;;;;;;;;;;;;;;;25.16;77.33;99375.81;348340;28;1352;-76
2023/07/05 00:29:57;;;;;;;;;;;;;;;25.10;77.73;99388.06;348757;28;1264;-77
2023/07/05 00:30:07;;;;;;;;;;;;;;;25.12;77.53;99391.41;347560;28;816;-77
2023/07/05 00:30:18;;;;;;;;;;;;;;;25.15;77.62;99390.22;348627;28;1322;-77
2023/07/05 00:30:28;;;;;;;;;;;;;;;25.17;77.52;99388.22;349907;28;1708;-76
2023/07/05 00:30:41;;;;;;;;;;;;;;;25.18;77.43;99385.38;348728;28;1332;-76
2023/07/05 00:30:51;;;;;;;;;;;;;;;25.22;77.17;99391.25;347319;28;1211;-77
2023/07/05 00:31:02;;;;;;;;;;;;;;;25.24;77.28;99386.59;344872;28;1405;-77
2023/07/05 00:31:12;;;;;;;;;;;;;;;25.26;77.12;99383.75;342294;28;1201;-76
2023/07/05 00:31:22;;;;;;;;;;;;;;;25.28;76.97;99382.56;343305;28;1186;-76
2023/07/05 00:31:32;;;;;;;;;;;;;;;25.29;77.02;99386.09;346203;28;1180;-76
2023/07/05 00:31:43;;;;;;;;;;;;;;;25.30;77.11;99383.25;344766;28;1240;-77
2023/07/05 00:31:53;;;;;;;;;;;;;;;25.30;77.02;99379.75;343721;28;1184;-76
2023/07/05 00:32:03;;;;;;;;;;;;;;;25.26;77.14;99381.91;344731;28;1156;-76
2023/07/05 00:32:13;;;;;;;;;;;;;;;25.22;77.31;99385.91;343565;28;1203;-76
2023/07/05 00:32:24;;;;;;;;;;;;;;;25.19;77.30;99381.72;342661;28;1358;-76
2023/07/05 00:32:34;;;;;;;;;;;;;;;25.17;77.51;99378.34;340752;28;1226;-76
2023/07/05 00:32:44;;;;;;;;;;;;;;;25.17;77.61;99382.88;340430;28;1365;-76
2023/07/05 00:32:54;;;;;;;;;;;;;;;25.17;77.56;99382.88;337609;29;1525;-76
2023/07/05 00:33:05;;;;;;;;;;;;;;;25.16;77.68;99381.19;336871;29;1407;-76
2023/07/05 00:33:15;;;;;;;;;;;;;;;25.17;77.61;99388.22;338356;28;1585;-77
2023/07/05 00:33:25;;;;;;;;;;;;;;;25.17;77.55;99382.88;337842;29;1220;-77
2023/07/05 00:33:36;;;;;;;;;;;;;;;25.19;77.58;99391.59;339397;29;1221;-77
2023/07/05 00:33:47;;;;;;;;;;;;;;;25.20;77.56;99382.53;339446;29;884;-77
2023/07/05 00:33:57;;;;;;;;;;;;;;;25.22;77.46;99382.38;338122;29;846;-77
2023/07/05 00:34:08;;;;;;;;;;;;;;;25.21;77.51;99378.88;339638;29;1204;-76
2023/07/05 00:34:18;;;;;;;;;;;;;;;25.20;77.53;99382.53;339473;29;1210;-77
2023/07/05 00:34:28;;;;;;;;;;;;;;;25.18;77.56;99379.19;338885;29;1535;-76
2023/07/05 00:34:39;;;;;;;;;;;;;;;25.17;77.67;99382.88;337184;29;1870;-77
2023/07/05 00:34:49;;;;;;;;;;;;;;;25.17;77.78;99377.50;335324;29;1311;-77
2023/07/05 00:34:59;;;;;;;;;;;;;;;25.17;77.55;99382.88;334018;29;2038;-77
2023/07/05 00:35:09;;;;;;;;;;;;;;;25.19;77.72;99378.19;334905;29;1614;-77
2023/07/05 00:35:20;;;;;;;;;;;;;;;25.19;77.72;99380.88;334249;29;1485;-77
2023/07/05 00:35:30;;;;;;;;;;;;;;;25.19;77.63;99373.66;332764;29;1400;-77
2023/07/05 00:35:51;;;;;;;;;;;;;;;25.18;77.79;99379.19;329797;29;1550;-77
2023/07/05 00:36:01;;;;;;;;;;;;;;;25.11;78.01;99378.19;331029;29;1016;-77
2023/07/05 00:36:11;;;;;;;;;;;;;;;25.07;78.14;99379.50;330911;29;1397;-77
2023/07/05 00:36:22;;;;;;;;;;;;;;;25.06;78.28;99375.16;329053;29;1704;-76
2023/07/05 00:36:32;;;;;;;;;;;;;;;25.04;78.27;99377.97;326241;30;1366;-77
2023/07/05 00:36:42;;;;;;;;;;;;;;;24.99;78.50;99384.81;328603;29;1709;-77
2023/07/05 00:36:52;;;;;;;;;;;;;;;24.94;78.74;99371.88;326008;30;2154;-77
2023/07/05 00:37:03;;;;;;;;;;;;;;;24.94;78.94;99373.72;324546;30;839;-77
2023/07/05 00:37:13;;;;;;;;;;;;;;;24.94;78.98;99377.22;328545;29;2413;-77
2023/07/05 00:37:23;;;;;;;;;;;;;;;24.93;78.97;99378.22;327035;30;2125;-77
2023/07/05 00:37:33;;;;;;;;;;;;;;;24.94;79.04;99373.72;326921;30;824;-77
2023/07/05 00:37:44;;;;;;;;;;;;;;;24.94;78.91;99371.88;320860;30;2115;-77
2023/07/05 00:37:54;;;;;;;;;;;;;;;24.95;78.84;99368.19;320927;30;1682;-77
2023/07/05 00:38:04;;;;;;;;;;;;;;;24.96;78.92;99372.59;320939;30;1322;-77
2023/07/05 00:38:15;;;;;;;;;;;;;;;24.98;78.80;99372.44;321378;30;1450;-78
2023/07/05 00:38:25;;;;;;;;;;;;;;;24.99;78.63;99374.94;320352;30;2045;-77
2023/07/05 00:38:35;;;;;;;;;;;;;;;24.99;78.76;99374.09;321883;30;2311;-77
2023/07/05 00:38:46;;;;;;;;;;;;;;;24.95;78.68;99368.19;323198;30;896;-76
2023/07/05 00:38:56;;;;;;;;;;;;;;;24.94;79.15;99373.72;318178;30;2678;-76
2023/07/05 00:39:06;;;;;;;;;;;;;;;24.95;78.89;99367.34;313228;31;2898;-76
2023/07/05 00:39:16;;;;;;;;;;;;;;;24.95;79.03;99372.72;314012;31;1322;-76
2023/07/05 00:39:27;;;;;;;;;;;;;;;24.91;78.99;99371.34;313839;31;3011;-76
2023/07/05 00:39:37;;;;;;;;;;;;;;;24.89;79.06;99374.19;314489;31;2680;-76
2023/07/05 00:39:47;;;;;;;;;;;;;;;24.90;79.37;99369.66;312920;31;1349;-76
2023/07/05 00:39:57;;;;;;;;;;;;;;;24.89;79.36;99366.16;311872;31;2614;-76
2023/07/05 00:40:08;;;;;;;;;;;;;;;24.90;79.35;99375.03;309385;31;2109;-77
2023/07/05 00:40:18;;;;;;;;;;;;;;;24.91;79.30;99372.19;310696;31;1002;-76
2023/07/05 00:40:29;;;;;;;;;;;;;;;24.91;79.27;99377.53;311809;31;2149;-76
2023/07/05 00:40:39;;;;;;;;;;;;;;;24.88;79.39;99370.66;310964;31;3686;-76
2023/07/05 00:40:50;;;;;;;;;;;;;;;24.86;79.46;99371.81;309463;31;922;-76
2023/07/05 00:41:00;;;;;;;;;;;;;;;24.84;79.48;99377.34;302408;32;3813;-76
2023/07/05 00:41:10;;;;;;;;;;;;;;;24.84;79.56;99374.66;304008;32;3746;-77
2023/07/05 00:41:20;;;;;;;;;;;;;;;24.81;79.59;99374.97;303241;32;3619;-77
2023/07/05 00:41:30;;;;;;;;;;;;;;;24.75;79.62;99372.94;301072;32;1221;-77
2023/07/05 00:41:41;;;;;;;;;;;;;;;24.73;79.88;99374.09;302306;32;4220;-77
2023/07/05 00:41:51;;;;;;;;;;;;;;;24.70;79.96;99375.25;304341;32;3570;-77
2023/07/05 00:42:02;;;;;;;;;;;;;;;24.68;80.34;99371.91;304275;32;876;-76
2023/07/05 00:42:12;;;;;;;;;;;;;;;24.69;80.42;99378.97;304256;32;3537;-77
2023/07/05 00:42:22;;;;;;;;;;;;;;;24.67;80.49;99372.91;302374;32;3041;-77
2023/07/05 00:42:33;;;;;;;;;;;;;;;24.68;80.24;99371.91;304313;32;899;-78
2023/07/05 00:42:43;;;;;;;;;;;;;;;24.68;80.43;99377.28;302333;32;3392;-75
2023/07/05 00:42:53;;;;;;;;;;;;;;;24.65;80.36;99369.56;297206;32;4025;-77
2023/07/05 00:43:03;;;;;;;;;;;;;;;24.65;80.50;99374.06;293851;33;1352;-75
2023/07/05 00:43:14;;;;;;;;;;;;;;;24.64;80.42;99377.75;296269;33;4760;-76
2023/07/05 00:43:24;;;;;;;;;;;;;;;24.65;80.42;99372.25;299295;32;5795;-76
2023/07/05 00:43:34;;;;;;;;;;;;;;;24.66;80.39;99373.06;304319;32;938;-76
2023/07/05 00:43:46;;;;;;;;;;;;;;;24.70;80.31;99375.25;297194;32;6800;-76
2023/07/05 00:43:56;;;;;;;;;;;;;;;24.71;80.28;99374.25;296953;32;5869;-75
2023/07/05 00:44:07;;;;;;;;;;;;;;;24.75;80.42;99377.44;294536;33;5162;-75
2023/07/05 00:44:17;;;;;;;;;;;;;;;24.77;80.39;99376.28;294074;33;1233;-75
2023/07/05 00:44:27;;;;;;;;;;;;;;;24.77;79.80;99370.94;293427;33;5254;-76
2023/07/05 00:44:37;;;;;;;;;;;;;;;24.78;79.87;99369.09;292512;33;4518;-76
2023/07/05 00:45:06;;;;;;;;;;;;;;;24.81;79.79;99371.47;290531;34;1573;-76
2023/07/05 00:45:19;;;;;;;;;;;;;;;24.87;79.73;99370.84;289262;34;986;-76
2023/07/05 00:47:54;;;;;;;;;;;;;;;25.00;78.80;99368.59;2502381;27;19932;-77
2023/07/05 00:48:04;;;;;;;;;;;;;;;24.98;78.99;99367.06;356020;27;844;-77
2023/07/05 00:48:14;;;;;;;;;;;;;;;24.96;78.92;99363.72;353039;28;1388;-76
2023/07/05 00:48:24;;;;;;;;;;;;;;;24.95;79.04;99364.69;351751;28;1315;-76
2023/07/05 00:48:37;;;;;;;;;;;;;;;24.91;79.09;99371.34;350311;28;1259;-76
2023/07/05 00:48:47;;;;;;;;;;;;;;;24.86;79.34;99369.16;350131;28;1415;-76
2023/07/05 00:48:59;;;;;;;;;;;;;;;24.79;79.24;99368.94;350274;28;791;-76
2023/07/05 00:49:29;;;;;;;;;;;;;;;24.82;79.49;99374.00;347405;28;1066;-77
2023/07/05 00:49:40;;;;;;;;;;;;;;;24.82;79.52;99371.31;345974;28;1378;-77
2023/07/05 00:49:50;;;;;;;;;;;;;;;24.84;79.47;99361.28;345139;28;1437;-77
2023/07/05 00:50:00;;;;;;;;;;;;;;;24.87;79.61;99366.31;346182;28;1405;-77
2023/07/05 00:50:16;;;;;;;;;;;;;;;24.88;79.33;99368.00;347408;28;1316;-77
2023/07/05 00:50:29;;;;;;;;;;;;;;;24.92;79.35;99373.88;345867;28;1418;-77
2023/07/05 00:50:41;;;;;;;;;;;;;;;24.94;78.88;99368.34;346215;28;863;-77
2023/07/05 00:50:53;;;;;;;;;;;;;;;24.95;78.96;99364.69;347156;28;1420;-77
2023/07/05 00:51:04;;;;;;;;;;;;;;;24.95;79.08;99367.34;347334;28;1340;-77
2023/07/05 00:51:16;;;;;;;;;;;;;;;24.96;79.13;99369.06;347390;28;1243;-77
2023/07/05 00:51:28;;;;;;;;;;;;;;;24.97;78.99;99360.03;347400;28;1326;-77
2023/07/05 00:51:38;;;;;;;;;;;;;;;24.98;78.91;99367.06;347525;28;1212;-77
2023/07/05 00:51:58;;;;;;;;;;;;;;;25.00;78.86;99370.44;350353;28;1334;-77
2023/07/05 00:52:12;;;;;;;;;;;;;;;25.03;78.81;99370.09;348757;28;1482;-76
2023/07/05 00:52:22;;;;;;;;;;;;;;;25.03;78.57;99370.09;349968;28;1313;-76
2023/07/05 00:52:32;;;;;;;;;;;;;;;24.97;78.81;99376.09;350732;28;1189;-77
2023/07/05 00:52:42;;;;;;;;;;;;;;;24.93;78.58;99361.31;348874;28;939;-77
2023/07/05 00:52:53;;;;;;;;;;;;;;;24.93;78.94;99370.19;348666;28;728;-76
2023/07/05 00:53:03;;;;;;;;;;;;;;;24.96;78.79;99363.72;350019;28;1322;-77
2023/07/05 00:53:13;;;;;;;;;;;;;;;24.96;78.73;99358.34;348583;28;1301;-77
2023/07/05 00:53:24;;;;;;;;;;;;;;;24.93;78.73;99364.00;350068;28;1822;-77
2023/07/05 00:53:35;;;;;;;;;;;;;;;24.90;78.86;99364.31;349300;28;873;-77
2023/07/05 00:53:45;;;;;;;;;;;;;;;24.91;78.95;99360.63;348811;28;1333;-77
2023/07/05 00:53:57;;;;;;;;;;;;;;;24.92;78.73;99365.00;348738;28;1295;-77
2023/07/05 00:54:07;;;;;;;;;;;;;;;24.87;78.81;99360.97;344728;28;927;-77
2023/07/05 00:54:18;;;;;;;;;;;;;;;24.85;79.09;99362.13;344505;28;893;-77
2023/07/05 00:54:32;;;;;;;;;;;;;;;24.83;79.05;99364.13;345579;28;1025;-77
2023/07/05 00:54:45;;;;;;;;;;;;;;;24.80;79.17;99359.06;340697;29;1249;-78
2023/07/05 00:54:55;;;;;;;;;;;;;;;24.79;79.27;99368.94;341826;28;1268;-78
2023/07/05 00:55:07;;;;;;;;;;;;;;;24.79;79.62;99362.75;340496;29;1297;-77
2023/07/05 00:55:17;;;;;;;;;;;;;;;24.79;79.63;99368.94;340474;28;1254;-77
2023/07/05 00:55:27;;;;;;;;;;;;;;;24.80;79.31;99364.44;339272;29;1413;-77
2023/07/05 00:55:38;;;;;;;;;;;;;;;24.78;79.68;99361.91;339233;29;1429;-77
2023/07/05 00:55:49;;;;;;;;;;;;;;;24.79;79.43;99368.94;340682;28;1296;-76
2023/07/05 00:56:01;;;;;;;;;;;;;;;24.79;79.45;99360.91;343929;28;1273;-77
2023/07/05 00:56:15;;;;;;;;;;;;;;;24.79;79.68;99363.59;343396;28;1229;-77
2023/07/05 00:56:33;;;;;;;;;;;;;;;24.78;79.65;99361.91;340698;29;864;-76
2023/07/05 00:56:45;;;;;;;;;;;;;;;24.79;79.70;99363.59;338302;29;1225;-76
2023/07/05 00:56:56;;;;;;;;;;;;;;;24.76;79.86;99358.56;338180;29;782;-76
2023/07/05 00:57:13;;;;;;;;;;;;;;;24.74;79.62;99357.88;341338;28;1331;-76
2023/07/05 00:57:24;;;;;;;;;;;;;;;24.73;79.85;99353.53;337959;29;1330;-75
2023/07/05 00:57:36;;;;;;;;;;;;;;;24.75;79.70;99359.56;341521;28;1294;-76
2023/07/05 00:57:46;;;;;;;;;;;;;;;24.77;79.96;99354.88;338831;29;1341;-77
2023/07/05 00:57:56;;;;;;;;;;;;;;;24.78;79.64;99361.91;335448;29;1298;-77
2023/07/05 00:58:06;;;;;;;;;;;;;;;24.79;79.60;99358.25;336267;29;1625;-77
2023/07/05 00:58:17;;;;;;;;;;;;;;;24.80;79.67;99359.91;336596;29;1740;-76
2023/07/05 00:58:27;;;;;;;;;;;;;;;24.82;79.58;99357.91;336822;29;798;-75
2023/07/05 00:58:37;;;;;;;;;;;;;;;24.83;79.36;99362.28;340326;29;1667;-76
2023/07/05 00:58:48;;;;;;;;;;;;;;;24.85;79.20;99362.13;339451;28;1667;-76
2023/07/05 00:58:59;;;;;;;;;;;;;;;24.86;79.22;99359.28;335368;29;1358;-76
2023/07/05 00:59:09;;;;;;;;;;;;;;;24.84;79.31;99358.59;336700;29;1344;-76
2023/07/05 00:59:19;;;;;;;;;;;;;;;24.85;79.30;99362.13;335377;29;905;-77
2023/07/05 00:59:30;;;;;;;;;;;;;;;24.87;79.17;99360.97;336591;29;1215;-77
2023/07/05 01:00:07;;;;;;;;;;;;;;;24.87;78.99;99355.59;334850;29;1327;-77
2023/07/05 01:00:18;;;;;;;;;;;;;;;24.90;79.18;99356.28;330330;29;2016;-76
2023/07/05 01:00:28;;;;;;;;;;;;;;;24.90;79.13;99353.59;328653;29;2555;-75
2023/07/05 01:00:38;;;;;;;;;;;;;;;24.91;79.08;99358.81;326646;30;1229;-76
2023/07/05 01:00:49;;;;;;;;;;;;;;;24.87;79.14;99355.59;324268;30;2215;-76
2023/07/05 01:00:59;;;;;;;;;;;;;;;24.87;79.24;99355.59;321995;30;2317;-76
2023/07/05 01:01:11;;;;;;;;;;;;;;;24.86;79.47;99353.94;321964;30;1339;-76
2023/07/05 01:01:21;;;;;;;;;;;;;;;24.87;79.24;99357.44;320631;30;1434;-76
2023/07/05 01:01:31;;;;;;;;;;;;;;;24.87;79.44;99355.59;319698;30;1217;-77
2023/07/05 01:01:42;;;;;;;;;;;;;;;24.90;79.22;99361.63;320878;30;1217;-77
2023/07/05 01:01:52;;;;;;;;;;;;;;;24.92;79.07;99356.97;319395;30;1676;-78
2023/07/05 01:02:02;;;;;;;;;;;;;;;24.92;79.05;99351.59;319995;30;2367;-75
2023/07/05 01:02:14;;;;;;;;;;;;;;;24.93;79.01;99359.47;320668;30;1411;-75
2023/07/05 01:02:24;;;;;;;;;;;;;;;24.95;79.24;99356.66;320176;30;900;-75
2023/07/05 01:02:38;;;;;;;;;;;;;;;24.97;78.96;99360.03;321544;30;2798;-75
2023/07/05 01:02:52;;;;;;;;;;;;;;;24.98;79.01;99357.19;319822;30;3116;-77
2023/07/05 01:03:03;;;;;;;;;;;;;;;24.96;78.84;99359.19;316007;31;2569;-76
2023/07/05 01:03:16;;;;;;;;;;;;;;;24.96;78.88;99358.34;314807;31;2717;-76
2023/07/05 01:03:26;;;;;;;;;;;;;;;24.98;78.83;99361.72;313951;31;871;-77
2023/07/05 01:03:37;;;;;;;;;;;;;;;24.98;79.11;99357.19;312255;31;1918;-77
2023/07/05 01:03:49;;;;;;;;;;;;;;;24.99;78.73;99353.53;315221;31;1729;-77
2023/07/05 01:03:59;;;;;;;;;;;;;;;24.95;78.85;99356.66;315448;31;2699;-78
2023/07/05 01:04:09;;;;;;;;;;;;;;;24.94;79.02;99360.31;309482;31;803;-77
2023/07/05 01:04:19;;;;;;;;;;;;;;;24.95;79.15;99356.66;311534;31;4043;-78
2023/07/05 01:04:33;;;;;;;;;;;;;;;24.96;78.87;99363.72;311739;31;4091;-78
2023/07/05 01:04:44;;;;;;;;;;;;;;;24.96;78.94;99358.34;309927;31;3468;-78